Terminal Aerodrome Forecast
Issued by NWS

Home | Current Version | Previous Version | Text Only | Print | Product List | Glossary Off
Versions: 1 2 3 4 5 6 7 8 9 10 11 12 13 14 15 16 17 18 19 20

000
FTUS43 KMPX 250500
TAFRNH
TAF
KRNH 250527Z 2506/2606 15004KT P6SM FEW050
     FM251100 16008KT 6SM -SHRA SCT035 OVC050
     FM251400 18010KT P6SM SCT020 BKN040
     FM251800 20006KT P6SM BKN040
     FM260200 VRB03KT 4SM BR SCT040=

USA.gov is the U.S. government's official web portal to all federal, state and local government web resources and services.